sensor_id;sensor_type;location;lat;lon;timestamp;P1;durP1;ratioP1;P2;durP2;ratioP2
14191;SDS011;7177;48.572;7.838;2023-07-09T00:02:21;6.77;;;4.47;;
14191;SDS011;7177;48.572;7.838;2023-07-09T00:04:48;8.87;;;5.07;;
14191;SDS011;7177;48.572;7.838;2023-07-09T00:07:31;10.23;;;4.70;;
14191;SDS011;7177;48.572;7.838;2023-07-09T00:09:58;9.33;;;4.83;;
14191;SDS011;7177;48.572;7.838;2023-07-09T00:12:25;7.83;;;4.47;;
14191;SDS011;7177;48.572;7.838;2023-07-09T00:14:51;11.27;;;5.40;;
14191;SDS011;7177;48.572;7.838;2023-07-09T00:17:26;7.43;;;4.60;;
14191;SDS011;7177;48.572;7.838;2023-07-09T00:19:56;7.30;;;4.67;;
14191;SDS011;7177;48.572;7.838;2023-07-09T00:22:22;4.73;;;3.83;;
14191;SDS011;7177;48.572;7.838;2023-07-09T00:24:49;9.80;;;4.10;;
14191;SDS011;7177;48.572;7.838;2023-07-09T00:27:19;9.83;;;5.30;;
14191;SDS011;7177;48.572;7.838;2023-07-09T00:32:15;10.10;;;5.20;;
14191;SDS011;7177;48.572;7.838;2023-07-09T00:34:45;9.00;;;4.47;;
14191;SDS011;7177;48.572;7.838;2023-07-09T00:37:13;8.60;;;5.10;;
14191;SDS011;7177;48.572;7.838;2023-07-09T00:39:40;9.47;;;5.40;;
14191;SDS011;7177;48.572;7.838;2023-07-09T00:42:17;10.23;;;5.57;;
14191;SDS011;7177;48.572;7.838;2023-07-09T00:44:45;6.33;;;4.80;;
14191;SDS011;7177;48.572;7.838;2023-07-09T00:49:42;7.77;;;4.80;;
14191;SDS011;7177;48.572;7.838;2023-07-09T00:54:47;6.33;;;4.33;;
14191;SDS011;7177;48.572;7.838;2023-07-09T00:57:17;8.63;;;4.90;;
14191;SDS011;7177;48.572;7.838;2023-07-09T00:59:47;8.10;;;4.57;;
14191;SDS011;7177;48.572;7.838;2023-07-09T01:02:22;6.47;;;4.67;;
14191;SDS011;7177;48.572;7.838;2023-07-09T01:04:52;8.70;;;4.80;;
14191;SDS011;7177;48.572;7.838;2023-07-09T01:07:20;8.03;;;4.30;;
14191;SDS011;7177;48.572;7.838;2023-07-09T01:09:46;9.67;;;4.83;;
14191;SDS011;7177;48.572;7.838;2023-07-09T01:12:13;6.80;;;4.17;;
14191;SDS011;7177;48.572;7.838;2023-07-09T01:14:43;6.27;;;5.00;;
14191;SDS011;7177;48.572;7.838;2023-07-09T01:17:11;7.30;;;5.03;;
14191;SDS011;7177;48.572;7.838;2023-07-09T01:19:39;6.30;;;4.80;;
14191;SDS011;7177;48.572;7.838;2023-07-09T01:22:13;7.10;;;5.03;;
14191;SDS011;7177;48.572;7.838;2023-07-09T01:24:54;5.73;;;4.70;;
14191;SDS011;7177;48.572;7.838;2023-07-09T01:27:22;7.97;;;4.63;;
14191;SDS011;7177;48.572;7.838;2023-07-09T01:29:55;6.70;;;5.20;;
14191;SDS011;7177;48.572;7.838;2023-07-09T01:32:22;6.80;;;4.60;;
14191;SDS011;7177;48.572;7.838;2023-07-09T01:34:48;6.60;;;5.00;;
14191;SDS011;7177;48.572;7.838;2023-07-09T01:37:18;8.53;;;4.90;;
14191;SDS011;7177;48.572;7.838;2023-07-09T01:39:46;8.20;;;4.67;;
14191;SDS011;7177;48.572;7.838;2023-07-09T01:42:14;7.17;;;5.07;;
14191;SDS011;7177;48.572;7.838;2023-07-09T01:44:40;5.60;;;4.40;;
14191;SDS011;7177;48.572;7.838;2023-07-09T01:47:06;8.37;;;4.40;;
14191;SDS011;7177;48.572;7.838;2023-07-09T01:49:32;7.13;;;4.83;;
14191;SDS011;7177;48.572;7.838;2023-07-09T01:51:58;7.20;;;4.87;;
14191;SDS011;7177;48.572;7.838;2023-07-09T01:54:27;5.67;;;4.50;;
14191;SDS011;7177;48.572;7.838;2023-07-09T01:57:12;6.20;;;4.73;;
14191;SDS011;7177;48.572;7.838;2023-07-09T01:59:39;4.83;;;4.20;;
14191;SDS011;7177;48.572;7.838;2023-07-09T02:02:06;5.07;;;4.37;;
14191;SDS011;7177;48.572;7.838;2023-07-09T02:04:32;6.87;;;4.70;;
14191;SDS011;7177;48.572;7.838;2023-07-09T02:06:58;12.53;;;5.00;;
14191;SDS011;7177;48.572;7.838;2023-07-09T02:09:23;7.17;;;4.87;;
14191;SDS011;7177;48.572;7.838;2023-07-09T02:11:49;6.20;;;4.77;;
14191;SDS011;7177;48.572;7.838;2023-07-09T02:14:14;5.60;;;4.80;;
14191;SDS011;7177;48.572;7.838;2023-07-09T02:16:40;6.60;;;5.07;;
14191;SDS011;7177;48.572;7.838;2023-07-09T02:19:05;6.87;;;4.80;;
14191;SDS011;7177;48.572;7.838;2023-07-09T02:21:31;6.67;;;4.70;;
14191;SDS011;7177;48.572;7.838;2023-07-09T02:23:56;5.63;;;4.33;;
14191;SDS011;7177;48.572;7.838;2023-07-09T02:26:22;8.10;;;4.60;;
14191;SDS011;7177;48.572;7.838;2023-07-09T02:28:47;6.47;;;5.00;;
14191;SDS011;7177;48.572;7.838;2023-07-09T02:31:13;6.17;;;4.77;;
14191;SDS011;7177;48.572;7.838;2023-07-09T02:33:40;7.53;;;4.77;;
14191;SDS011;7177;48.572;7.838;2023-07-09T02:36:06;9.27;;;5.20;;
14191;SDS011;7177;48.572;7.838;2023-07-09T02:38:31;7.97;;;5.60;;
14191;SDS011;7177;48.572;7.838;2023-07-09T02:40:57;5.33;;;4.67;;
14191;SDS011;7177;48.572;7.838;2023-07-09T02:43:22;9.10;;;5.13;;
14191;SDS011;7177;48.572;7.838;2023-07-09T02:45:48;10.77;;;5.63;;
14191;SDS011;7177;48.572;7.838;2023-07-09T02:48:13;9.43;;;5.23;;
14191;SDS011;7177;48.572;7.838;2023-07-09T02:50:39;7.10;;;4.73;;
14191;SDS011;7177;48.572;7.838;2023-07-09T02:53:04;10.00;;;5.20;;
14191;SDS011;7177;48.572;7.838;2023-07-09T02:55:30;11.00;;;5.00;;
14191;SDS011;7177;48.572;7.838;2023-07-09T02:57:55;7.83;;;5.10;;
14191;SDS011;7177;48.572;7.838;2023-07-09T03:00:21;6.87;;;4.67;;
14191;SDS011;7177;48.572;7.838;2023-07-09T03:02:46;6.93;;;5.00;;
14191;SDS011;7177;48.572;7.838;2023-07-09T03:05:12;6.40;;;4.67;;
14191;SDS011;7177;48.572;7.838;2023-07-09T03:07:37;7.03;;;4.87;;
14191;SDS011;7177;48.572;7.838;2023-07-09T03:10:03;6.03;;;4.50;;
14191;SDS011;7177;48.572;7.838;2023-07-09T03:12:28;6.90;;;5.10;;
14191;SDS011;7177;48.572;7.838;2023-07-09T03:14:54;7.80;;;4.57;;
14191;SDS011;7177;48.572;7.838;2023-07-09T03:17:19;8.70;;;4.73;;
14191;SDS011;7177;48.572;7.838;2023-07-09T03:19:45;7.80;;;5.07;;
14191;SDS011;7177;48.572;7.838;2023-07-09T03:22:10;8.67;;;5.63;;
14191;SDS011;7177;48.572;7.838;2023-07-09T03:24:36;6.63;;;4.77;;
14191;SDS011;7177;48.572;7.838;2023-07-09T03:27:01;5.00;;;4.40;;
14191;SDS011;7177;48.572;7.838;2023-07-09T03:29:27;7.53;;;5.00;;
14191;SDS011;7177;48.572;7.838;2023-07-09T03:31:53;6.57;;;4.73;;
14191;SDS011;7177;48.572;7.838;2023-07-09T03:34:18;6.17;;;4.60;;
14191;SDS011;7177;48.572;7.838;2023-07-09T03:36:44;6.73;;;4.77;;
14191;SDS011;7177;48.572;7.838;2023-07-09T03:39:10;6.30;;;4.97;;
14191;SDS011;7177;48.572;7.838;2023-07-09T03:41:36;7.87;;;4.70;;
14191;SDS011;7177;48.572;7.838;2023-07-09T03:44:01;9.87;;;5.43;;
14191;SDS011;7177;48.572;7.838;2023-07-09T03:46:28;5.77;;;4.70;;
14191;SDS011;7177;48.572;7.838;2023-07-09T03:48:53;8.57;;;4.97;;
14191;SDS011;7177;48.572;7.838;2023-07-09T03:51:19;7.13;;;5.20;;
14191;SDS011;7177;48.572;7.838;2023-07-09T03:53:45;8.00;;;5.73;;
14191;SDS011;7177;48.572;7.838;2023-07-09T03:56:10;10.10;;;5.43;;
14191;SDS011;7177;48.572;7.838;2023-07-09T03:58:36;9.37;;;5.20;;
14191;SDS011;7177;48.572;7.838;2023-07-09T04:01:01;8.23;;;4.63;;
14191;SDS011;7177;48.572;7.838;2023-07-09T04:03:27;6.93;;;5.17;;
14191;SDS011;7177;48.572;7.838;2023-07-09T04:05:52;6.87;;;5.00;;
14191;SDS011;7177;48.572;7.838;2023-07-09T04:08:18;8.60;;;5.00;;
14191;SDS011;7177;48.572;7.838;2023-07-09T04:10:43;9.43;;;4.67;;
14191;SDS011;7177;48.572;7.838;2023-07-09T04:13:09;6.50;;;4.93;;
14191;SDS011;7177;48.572;7.838;2023-07-09T04:15:34;8.03;;;5.13;;
14191;SDS011;7177;48.572;7.838;2023-07-09T04:18:00;5.23;;;4.70;;
14191;SDS011;7177;48.572;7.838;2023-07-09T04:20:25;7.10;;;5.27;;
14191;SDS011;7177;48.572;7.838;2023-07-09T04:22:51;6.93;;;5.30;;
14191;SDS011;7177;48.572;7.838;2023-07-09T04:25:16;6.83;;;5.23;;
14191;SDS011;7177;48.572;7.838;2023-07-09T04:27:42;7.27;;;5.47;;
14191;SDS011;7177;48.572;7.838;2023-07-09T04:30:09;7.57;;;5.23;;
14191;SDS011;7177;48.572;7.838;2023-07-09T04:32:39;6.87;;;4.93;;
14191;SDS011;7177;48.572;7.838;2023-07-09T04:35:08;9.20;;;5.23;;
14191;SDS011;7177;48.572;7.838;2023-07-09T04:37:36;8.23;;;5.53;;
14191;SDS011;7177;48.572;7.838;2023-07-09T04:40:02;7.40;;;5.47;;
14191;SDS011;7177;48.572;7.838;2023-07-09T04:42:29;6.80;;;4.80;;
14191;SDS011;7177;48.572;7.838;2023-07-09T04:44:54;9.07;;;5.40;;
14191;SDS011;7177;48.572;7.838;2023-07-09T04:47:20;7.63;;;5.50;;
14191;SDS011;7177;48.572;7.838;2023-07-09T04:49:45;7.50;;;4.67;;
14191;SDS011;7177;48.572;7.838;2023-07-09T04:52:11;8.33;;;5.10;;
14191;SDS011;7177;48.572;7.838;2023-07-09T04:54:37;10.57;;;5.17;;
14191;SDS011;7177;48.572;7.838;2023-07-09T04:57:05;6.63;;;4.57;;
14191;SDS011;7177;48.572;7.838;2023-07-09T04:59:31;6.43;;;4.77;;
14191;SDS011;7177;48.572;7.838;2023-07-09T05:01:57;8.07;;;4.87;;
14191;SDS011;7177;48.572;7.838;2023-07-09T05:04:22;6.47;;;5.07;;
14191;SDS011;7177;48.572;7.838;2023-07-09T05:06:48;8.13;;;4.93;;
14191;SDS011;7177;48.572;7.838;2023-07-09T05:09:14;6.20;;;4.70;;
14191;SDS011;7177;48.572;7.838;2023-07-09T05:11:39;9.13;;;4.87;;
14191;SDS011;7177;48.572;7.838;2023-07-09T05:14:05;7.77;;;5.00;;
14191;SDS011;7177;48.572;7.838;2023-07-09T05:16:30;10.30;;;5.27;;
14191;SDS011;7177;48.572;7.838;2023-07-09T05:18:56;7.50;;;5.20;;
14191;SDS011;7177;48.572;7.838;2023-07-09T05:21:21;8.53;;;5.27;;
14191;SDS011;7177;48.572;7.838;2023-07-09T05:23:47;6.07;;;4.47;;
14191;SDS011;7177;48.572;7.838;2023-07-09T05:26:12;11.03;;;5.07;;
14191;SDS011;7177;48.572;7.838;2023-07-09T05:28:38;6.47;;;4.90;;
14191;SDS011;7177;48.572;7.838;2023-07-09T05:31:04;6.27;;;4.63;;
14191;SDS011;7177;48.572;7.838;2023-07-09T05:33:30;6.00;;;4.37;;
14191;SDS011;7177;48.572;7.838;2023-07-09T05:35:55;7.07;;;4.93;;
14191;SDS011;7177;48.572;7.838;2023-07-09T05:38:21;9.17;;;5.20;;
14191;SDS011;7177;48.572;7.838;2023-07-09T05:40:46;8.17;;;4.53;;
14191;SDS011;7177;48.572;7.838;2023-07-09T05:43:12;5.77;;;4.93;;
14191;SDS011;7177;48.572;7.838;2023-07-09T05:45:38;6.70;;;4.77;;
14191;SDS011;7177;48.572;7.838;2023-07-09T05:48:04;5.57;;;4.70;;
14191;SDS011;7177;48.572;7.838;2023-07-09T05:50:32;6.70;;;4.50;;
14191;SDS011;7177;48.572;7.838;2023-07-09T05:52:59;6.33;;;5.30;;
14191;SDS011;7177;48.572;7.838;2023-07-09T05:55:25;9.20;;;4.93;;
14191;SDS011;7177;48.572;7.838;2023-07-09T05:57:51;6.70;;;5.17;;
14191;SDS011;7177;48.572;7.838;2023-07-09T06:00:17;5.90;;;4.70;;
14191;SDS011;7177;48.572;7.838;2023-07-09T06:02:43;9.20;;;5.50;;
14191;SDS011;7177;48.572;7.838;2023-07-09T06:05:09;7.37;;;5.10;;
14191;SDS011;7177;48.572;7.838;2023-07-09T06:07:36;7.33;;;5.07;;
14191;SDS011;7177;48.572;7.838;2023-07-09T06:10:03;8.87;;;4.93;;
14191;SDS011;7177;48.572;7.838;2023-07-09T06:12:32;7.90;;;5.33;;
14191;SDS011;7177;48.572;7.838;2023-07-09T06:14:58;10.13;;;5.10;;
14191;SDS011;7177;48.572;7.838;2023-07-09T06:17:23;7.83;;;4.73;;
14191;SDS011;7177;48.572;7.838;2023-07-09T06:19:49;7.80;;;4.90;;
14191;SDS011;7177;48.572;7.838;2023-07-09T06:22:14;7.37;;;4.90;;
14191;SDS011;7177;48.572;7.838;2023-07-09T06:24:40;7.20;;;4.70;;
14191;SDS011;7177;48.572;7.838;2023-07-09T06:27:05;9.03;;;4.87;;
14191;SDS011;7177;48.572;7.838;2023-07-09T06:29:31;6.03;;;4.60;;
14191;SDS011;7177;48.572;7.838;2023-07-09T06:31:57;7.20;;;4.50;;
14191;SDS011;7177;48.572;7.838;2023-07-09T06:34:22;6.97;;;4.60;;
14191;SDS011;7177;48.572;7.838;2023-07-09T06:36:48;7.47;;;4.73;;
14191;SDS011;7177;48.572;7.838;2023-07-09T06:39:13;7.87;;;5.30;;
14191;SDS011;7177;48.572;7.838;2023-07-09T06:41:39;7.57;;;4.73;;
14191;SDS011;7177;48.572;7.838;2023-07-09T06:44:08;6.67;;;4.57;;
14191;SDS011;7177;48.572;7.838;2023-07-09T06:46:34;6.10;;;4.60;;
14191;SDS011;7177;48.572;7.838;2023-07-09T06:49:01;7.17;;;4.80;;
14191;SDS011;7177;48.572;7.838;2023-07-09T06:51:27;7.83;;;4.97;;
14191;SDS011;7177;48.572;7.838;2023-07-09T06:53:53;6.60;;;4.50;;
14191;SDS011;7177;48.572;7.838;2023-07-09T06:56:18;6.70;;;4.93;;
14191;SDS011;7177;48.572;7.838;2023-07-09T06:58:44;9.37;;;4.60;;
14191;SDS011;7177;48.572;7.838;2023-07-09T07:01:11;6.13;;;4.60;;
14191;SDS011;7177;48.572;7.838;2023-07-09T07:03:38;4.93;;;4.13;;
14191;SDS011;7177;48.572;7.838;2023-07-09T07:06:04;5.47;;;4.47;;
14191;SDS011;7177;48.572;7.838;2023-07-09T07:08:31;7.30;;;4.67;;
14191;SDS011;7177;48.572;7.838;2023-07-09T07:10:59;7.17;;;4.37;;
14191;SDS011;7177;48.572;7.838;2023-07-09T07:13:29;6.07;;;4.43;;
14191;SDS011;7177;48.572;7.838;2023-07-09T07:15:56;10.60;;;5.10;;
14191;SDS011;7177;48.572;7.838;2023-07-09T07:18:21;6.63;;;4.40;;
14191;SDS011;7177;48.572;7.838;2023-07-09T07:20:47;7.30;;;4.70;;
14191;SDS011;7177;48.572;7.838;2023-07-09T07:23:13;5.90;;;4.10;;
14191;SDS011;7177;48.572;7.838;2023-07-09T07:25:39;7.87;;;4.60;;
14191;SDS011;7177;48.572;7.838;2023-07-09T07:28:05;5.63;;;4.13;;
14191;SDS011;7177;48.572;7.838;2023-07-09T07:30:31;6.40;;;4.20;;
14191;SDS011;7177;48.572;7.838;2023-07-09T07:32:57;7.80;;;4.20;;
14191;SDS011;7177;48.572;7.838;2023-07-09T07:35:22;6.93;;;4.53;;
14191;SDS011;7177;48.572;7.838;2023-07-09T07:37:48;4.87;;;4.33;;
14191;SDS011;7177;48.572;7.838;2023-07-09T07:40:13;6.37;;;4.23;;
14191;SDS011;7177;48.572;7.838;2023-07-09T07:42:39;6.50;;;4.00;;
14191;SDS011;7177;48.572;7.838;2023-07-09T07:45:05;7.67;;;4.73;;
14191;SDS011;7177;48.572;7.838;2023-07-09T07:47:32;8.03;;;5.27;;
14191;SDS011;7177;48.572;7.838;2023-07-09T07:49:58;5.60;;;4.60;;
14191;SDS011;7177;48.572;7.838;2023-07-09T07:52:24;6.77;;;4.27;;
14191;SDS011;7177;48.572;7.838;2023-07-09T07:54:50;7.17;;;4.33;;
14191;SDS011;7177;48.572;7.838;2023-07-09T07:57:17;7.30;;;4.37;;
14191;SDS011;7177;48.572;7.838;2023-07-09T07:59:43;9.10;;;5.30;;
14191;SDS011;7177;48.572;7.838;2023-07-09T08:02:12;4.87;;;4.00;;
14191;SDS011;7177;48.572;7.838;2023-07-09T08:04:39;7.80;;;4.30;;
14191;SDS011;7177;48.572;7.838;2023-07-09T08:07:05;7.33;;;5.20;;
14191;SDS011;7177;48.572;7.838;2023-07-09T08:09:32;7.73;;;4.40;;
14191;SDS011;7177;48.572;7.838;2023-07-09T08:11:58;4.83;;;4.23;;
14191;SDS011;7177;48.572;7.838;2023-07-09T08:14:24;5.13;;;3.93;;
14191;SDS011;7177;48.572;7.838;2023-07-09T08:16:49;4.70;;;4.20;;
14191;SDS011;7177;48.572;7.838;2023-07-09T08:19:17;5.03;;;3.90;;
14191;SDS011;7177;48.572;7.838;2023-07-09T08:21:44;5.80;;;4.30;;
14191;SDS011;7177;48.572;7.838;2023-07-09T08:24:10;6.47;;;3.73;;
14191;SDS011;7177;48.572;7.838;2023-07-09T08:26:35;7.00;;;4.27;;
14191;SDS011;7177;48.572;7.838;2023-07-09T08:29:03;5.50;;;4.23;;
14191;SDS011;7177;48.572;7.838;2023-07-09T08:31:28;8.43;;;4.50;;
14191;SDS011;7177;48.572;7.838;2023-07-09T08:33:54;4.07;;;3.67;;
14191;SDS011;7177;48.572;7.838;2023-07-09T08:36:20;6.47;;;4.00;;
14191;SDS011;7177;48.572;7.838;2023-07-09T08:38:45;5.73;;;4.37;;
14191;SDS011;7177;48.572;7.838;2023-07-09T08:46:54;6.40;;;3.97;;
14191;SDS011;7177;48.572;7.838;2023-07-09T08:49:31;5.93;;;4.00;;
14191;SDS011;7177;48.572;7.838;2023-07-09T08:51:58;7.33;;;4.20;;
14191;SDS011;7177;48.572;7.838;2023-07-09T08:54:26;9.23;;;3.90;;
14191;SDS011;7177;48.572;7.838;2023-07-09T08:56:56;5.50;;;4.13;;
14191;SDS011;7177;48.572;7.838;2023-07-09T08:59:27;7.27;;;4.17;;
14191;SDS011;7177;48.572;7.838;2023-07-09T09:01:54;4.87;;;3.50;;
14191;SDS011;7177;48.572;7.838;2023-07-09T09:04:25;5.13;;;3.80;;
14191;SDS011;7177;48.572;7.838;2023-07-09T09:06:57;7.47;;;3.80;;
14191;SDS011;7177;48.572;7.838;2023-07-09T09:09:36;6.07;;;4.47;;
14191;SDS011;7177;48.572;7.838;2023-07-09T09:12:14;7.47;;;4.60;;
14191;SDS011;7177;48.572;7.838;2023-07-09T09:14:44;7.13;;;4.13;;
14191;SDS011;7177;48.572;7.838;2023-07-09T09:17:17;5.37;;;4.20;;
14191;SDS011;7177;48.572;7.838;2023-07-09T09:19:59;6.37;;;4.00;;
14191;SDS011;7177;48.572;7.838;2023-07-09T09:22:42;7.10;;;4.60;;
14191;SDS011;7177;48.572;7.838;2023-07-09T09:25:18;5.70;;;3.80;;
14191;SDS011;7177;48.572;7.838;2023-07-09T09:27:49;6.07;;;4.10;;
14191;SDS011;7177;48.572;7.838;2023-07-09T09:30:18;6.00;;;3.97;;
14191;SDS011;7177;48.572;7.838;2023-07-09T09:32:49;6.67;;;4.07;;
14191;SDS011;7177;48.572;7.838;2023-07-09T09:35:42;6.83;;;4.00;;
14191;SDS011;7177;48.572;7.838;2023-07-09T09:38:27;5.63;;;3.70;;
14191;SDS011;7177;48.572;7.838;2023-07-09T09:40:59;6.87;;;3.80;;
14191;SDS011;7177;48.572;7.838;2023-07-09T09:43:31;5.77;;;4.13;;
14191;SDS011;7177;48.572;7.838;2023-07-09T09:45:58;5.53;;;4.03;;
14191;SDS011;7177;48.572;7.838;2023-07-09T09:48:27;6.50;;;3.93;;
14191;SDS011;7177;48.572;7.838;2023-07-09T09:50:54;5.13;;;3.87;;
14191;SDS011;7177;48.572;7.838;2023-07-09T09:53:25;4.37;;;3.60;;
14191;SDS011;7177;48.572;7.838;2023-07-09T09:55:53;4.87;;;3.77;;
14191;SDS011;7177;48.572;7.838;2023-07-09T09:58:19;6.03;;;3.83;;
14191;SDS011;7177;48.572;7.838;2023-07-09T10:00:50;5.03;;;3.47;;
14191;SDS011;7177;48.572;7.838;2023-07-09T10:03:17;4.83;;;3.67;;
14191;SDS011;7177;48.572;7.838;2023-07-09T10:05:55;10.70;;;3.43;;
14191;SDS011;7177;48.572;7.838;2023-07-09T10:11:16;8.77;;;2.90;;
14191;SDS011;7177;48.572;7.838;2023-07-09T10:13:46;4.13;;;3.23;;
14191;SDS011;7177;48.572;7.838;2023-07-09T10:16:57;6.83;;;3.50;;
14191;SDS011;7177;48.572;7.838;2023-07-09T10:19:15;6.20;;;3.17;;
14191;SDS011;7177;48.572;7.838;2023-07-09T10:21:47;7.47;;;3.50;;
14191;SDS011;7177;48.572;7.838;2023-07-09T10:27:16;6.37;;;3.30;;
14191;SDS011;7177;48.572;7.838;2023-07-09T10:30:12;7.20;;;3.40;;
14191;SDS011;7177;48.572;7.838;2023-07-09T10:38:08;6.75;;;3.55;;
14191;SDS011;7177;48.572;7.838;2023-07-09T10:40:54;5.70;;;3.67;;
14191;SDS011;7177;48.572;7.838;2023-07-09T10:43:36;4.00;;;3.10;;
14191;SDS011;7177;48.572;7.838;2023-07-09T10:46:11;4.82;;;3.20;;
14191;SDS011;7177;48.572;7.838;2023-07-09T10:48:44;4.57;;;3.43;;
14191;SDS011;7177;48.572;7.838;2023-07-09T10:51:19;6.67;;;3.60;;
14191;SDS011;7177;48.572;7.838;2023-07-09T10:56:37;7.83;;;4.17;;
14191;SDS011;7177;48.572;7.838;2023-07-09T10:59:21;5.70;;;3.70;;
14191;SDS011;7177;48.572;7.838;2023-07-09T11:04:57;6.63;;;3.70;;
14191;SDS011;7177;48.572;7.838;2023-07-09T11:10:21;5.15;;;3.40;;
14191;SDS011;7177;48.572;7.838;2023-07-09T11:12:52;5.95;;;3.70;;
14191;SDS011;7177;48.572;7.838;2023-07-09T11:15:32;6.45;;;4.05;;
14191;SDS011;7177;48.572;7.838;2023-07-09T11:18:01;6.38;;;3.35;;
14191;SDS011;7177;48.572;7.838;2023-07-09T11:20:32;6.80;;;3.55;;
14191;SDS011;7177;48.572;7.838;2023-07-09T11:23:03;7.55;;;3.58;;
14191;SDS011;7177;48.572;7.838;2023-07-09T11:25:40;7.13;;;3.70;;
14191;SDS011;7177;48.572;7.838;2023-07-09T11:28:10;6.55;;;4.00;;
14191;SDS011;7177;48.572;7.838;2023-07-09T11:30:49;15.30;;;4.47;;
14191;SDS011;7177;48.572;7.838;2023-07-09T11:33:20;4.25;;;2.95;;
14191;SDS011;7177;48.572;7.838;2023-07-09T11:35:54;4.57;;;3.17;;
14191;SDS011;7177;48.572;7.838;2023-07-09T11:38:38;3.78;;;3.10;;
14191;SDS011;7177;48.572;7.838;2023-07-09T11:41:25;5.53;;;3.75;;
14191;SDS011;7177;48.572;7.838;2023-07-09T11:43:53;11.45;;;3.58;;
14191;SDS011;7177;48.572;7.838;2023-07-09T11:46:40;5.57;;;3.33;;
14191;SDS011;7177;48.572;7.838;2023-07-09T11:52:27;6.28;;;3.58;;
14191;SDS011;7177;48.572;7.838;2023-07-09T11:55:02;6.90;;;4.00;;
14191;SDS011;7177;48.572;7.838;2023-07-09T11:57:46;4.05;;;3.28;;
14191;SDS011;7177;48.572;7.838;2023-07-09T12:00:14;3.80;;;2.95;;
14191;SDS011;7177;48.572;7.838;2023-07-09T12:02:40;4.22;;;3.38;;
14191;SDS011;7177;48.572;7.838;2023-07-09T12:05:06;7.03;;;3.58;;
14191;SDS011;7177;48.572;7.838;2023-07-09T12:07:32;6.38;;;3.45;;
14191;SDS011;7177;48.572;7.838;2023-07-09T12:09:59;5.53;;;3.50;;
14191;SDS011;7177;48.572;7.838;2023-07-09T12:12:36;7.55;;;3.25;;
14191;SDS011;7177;48.572;7.838;2023-07-09T12:15:17;7.97;;;3.50;;
14191;SDS011;7177;48.572;7.838;2023-07-09T12:17:51;6.93;;;3.30;;
14191;SDS011;7177;48.572;7.838;2023-07-09T12:20:34;6.53;;;3.65;;
14191;SDS011;7177;48.572;7.838;2023-07-09T12:23:09;9.40;;;3.80;;
14191;SDS011;7177;48.572;7.838;2023-07-09T12:26:10;4.53;;;3.13;;
14191;SDS011;7177;48.572;7.838;2023-07-09T12:28:42;6.10;;;3.65;;
14191;SDS011;7177;48.572;7.838;2023-07-09T12:33:35;5.82;;;3.15;;
14191;SDS011;7177;48.572;7.838;2023-07-09T12:36:02;4.80;;;3.03;;
14191;SDS011;7177;48.572;7.838;2023-07-09T12:38:33;3.75;;;3.03;;
14191;SDS011;7177;48.572;7.838;2023-07-09T12:41:09;6.40;;;3.72;;
14191;SDS011;7177;48.572;7.838;2023-07-09T12:43:53;5.50;;;3.45;;
14191;SDS011;7177;48.572;7.838;2023-07-09T12:46:20;4.20;;;3.25;;
14191;SDS011;7177;48.572;7.838;2023-07-09T12:48:47;4.85;;;3.50;;
14191;SDS011;7177;48.572;7.838;2023-07-09T12:51:15;5.47;;;3.20;;
14191;SDS011;7177;48.572;7.838;2023-07-09T12:53:44;5.75;;;3.35;;
14191;SDS011;7177;48.572;7.838;2023-07-09T12:56:13;4.55;;;3.42;;
14191;SDS011;7177;48.572;7.838;2023-07-09T12:58:42;7.03;;;3.80;;
14191;SDS011;7177;48.572;7.838;2023-07-09T13:01:14;5.93;;;3.20;;
14191;SDS011;7177;48.572;7.838;2023-07-09T13:03:41;6.97;;;3.47;;
14191;SDS011;7177;48.572;7.838;2023-07-09T13:08:57;4.55;;;3.28;;
14191;SDS011;7177;48.572;7.838;2023-07-09T13:11:24;5.22;;;3.38;;
14191;SDS011;7177;48.572;7.838;2023-07-09T13:13:54;7.15;;;3.20;;
14191;SDS011;7177;48.572;7.838;2023-07-09T13:16:24;6.10;;;3.70;;
14191;SDS011;7177;48.572;7.838;2023-07-09T13:18:50;6.53;;;3.28;;
14191;SDS011;7177;48.572;7.838;2023-07-09T13:21:16;4.40;;;3.40;;
14191;SDS011;7177;48.572;7.838;2023-07-09T13:23:43;8.13;;;3.50;;
14191;SDS011;7177;48.572;7.838;2023-07-09T13:26:09;5.75;;;3.55;;
14191;SDS011;7177;48.572;7.838;2023-07-09T13:28:34;7.05;;;3.17;;
14191;SDS011;7177;48.572;7.838;2023-07-09T13:31:01;9.32;;;3.55;;
14191;SDS011;7177;48.572;7.838;2023-07-09T13:33:33;6.43;;;3.53;;
14191;SDS011;7177;48.572;7.838;2023-07-09T13:35:59;6.15;;;3.50;;
14191;SDS011;7177;48.572;7.838;2023-07-09T13:38:26;6.03;;;3.33;;
14191;SDS011;7177;48.572;7.838;2023-07-09T13:40:56;4.60;;;3.40;;
14191;SDS011;7177;48.572;7.838;2023-07-09T13:43:28;4.63;;;3.30;;
14191;SDS011;7177;48.572;7.838;2023-07-09T13:45:56;6.20;;;3.80;;
14191;SDS011;7177;48.572;7.838;2023-07-09T13:48:23;8.63;;;3.30;;
14191;SDS011;7177;48.572;7.838;2023-07-09T13:50:50;7.07;;;3.83;;
14191;SDS011;7177;48.572;7.838;2023-07-09T13:53:19;5.75;;;3.53;;
14191;SDS011;7177;48.572;7.838;2023-07-09T13:55:48;4.20;;;3.50;;
14191;SDS011;7177;48.572;7.838;2023-07-09T13:58:16;4.77;;;3.50;;
14191;SDS011;7177;48.572;7.838;2023-07-09T14:00:43;4.13;;;3.40;;
14191;SDS011;7177;48.572;7.838;2023-07-09T14:03:12;5.22;;;3.50;;
14191;SDS011;7177;48.572;7.838;2023-07-09T14:05:39;7.55;;;3.47;;
14191;SDS011;7177;48.572;7.838;2023-07-09T14:08:06;4.33;;;3.40;;
14191;SDS011;7177;48.572;7.838;2023-07-09T14:10:33;6.10;;;4.00;;
14191;SDS011;7177;48.572;7.838;2023-07-09T14:12:58;8.97;;;3.80;;
14191;SDS011;7177;48.572;7.838;2023-07-09T14:15:25;7.40;;;3.90;;
14191;SDS011;7177;48.572;7.838;2023-07-09T14:17:50;5.73;;;3.93;;
14191;SDS011;7177;48.572;7.838;2023-07-09T14:20:17;5.70;;;4.27;;
14191;SDS011;7177;48.572;7.838;2023-07-09T14:22:43;4.50;;;3.50;;
14191;SDS011;7177;48.572;7.838;2023-07-09T14:25:14;6.87;;;3.93;;
14191;SDS011;7177;48.572;7.838;2023-07-09T14:27:50;6.97;;;4.40;;
14191;SDS011;7177;48.572;7.838;2023-07-09T14:30:18;7.40;;;4.77;;
14191;SDS011;7177;48.572;7.838;2023-07-09T14:32:46;9.90;;;5.17;;
14191;SDS011;7177;48.572;7.838;2023-07-09T14:35:17;6.47;;;3.83;;
14191;SDS011;7177;48.572;7.838;2023-07-09T14:37:45;7.87;;;4.47;;
14191;SDS011;7177;48.572;7.838;2023-07-09T14:40:12;8.57;;;4.10;;
14191;SDS011;7177;48.572;7.838;2023-07-09T14:42:39;5.60;;;3.60;;
14191;SDS011;7177;48.572;7.838;2023-07-09T14:45:09;6.60;;;3.67;;
14191;SDS011;7177;48.572;7.838;2023-07-09T14:47:48;4.20;;;3.80;;
14191;SDS011;7177;48.572;7.838;2023-07-09T14:50:15;6.90;;;3.53;;
14191;SDS011;7177;48.572;7.838;2023-07-09T14:52:42;5.03;;;3.57;;
14191;SDS011;7177;48.572;7.838;2023-07-09T14:55:16;5.63;;;3.40;;
14191;SDS011;7177;48.572;7.838;2023-07-09T14:57:43;6.17;;;4.50;;
14191;SDS011;7177;48.572;7.838;2023-07-09T15:00:27;4.53;;;3.20;;
14191;SDS011;7177;48.572;7.838;2023-07-09T15:02:53;7.40;;;3.63;;
14191;SDS011;7177;48.572;7.838;2023-07-09T15:05:21;4.77;;;3.37;;
14191;SDS011;7177;48.572;7.838;2023-07-09T15:07:49;5.93;;;3.67;;
14191;SDS011;7177;48.572;7.838;2023-07-09T15:10:16;4.70;;;3.70;;
14191;SDS011;7177;48.572;7.838;2023-07-09T15:12:48;7.50;;;3.97;;
14191;SDS011;7177;48.572;7.838;2023-07-09T15:15:18;6.90;;;4.13;;
14191;SDS011;7177;48.572;7.838;2023-07-09T15:17:45;6.67;;;3.83;;
14191;SDS011;7177;48.572;7.838;2023-07-09T15:20:18;5.60;;;3.67;;
14191;SDS011;7177;48.572;7.838;2023-07-09T15:22:47;4.27;;;3.50;;
14191;SDS011;7177;48.572;7.838;2023-07-09T15:25:19;5.27;;;3.67;;
14191;SDS011;7177;48.572;7.838;2023-07-09T15:27:46;5.23;;;3.50;;
14191;SDS011;7177;48.572;7.838;2023-07-09T15:30:13;6.40;;;3.30;;
14191;SDS011;7177;48.572;7.838;2023-07-09T15:32:40;5.17;;;3.40;;
14191;SDS011;7177;48.572;7.838;2023-07-09T15:35:05;6.53;;;3.30;;
14191;SDS011;7177;48.572;7.838;2023-07-09T15:37:31;5.47;;;3.20;;
14191;SDS011;7177;48.572;7.838;2023-07-09T15:39:57;4.57;;;2.93;;
14191;SDS011;7177;48.572;7.838;2023-07-09T15:42:23;6.27;;;3.10;;
14191;SDS011;7177;48.572;7.838;2023-07-09T15:44:48;4.20;;;2.77;;
14191;SDS011;7177;48.572;7.838;2023-07-09T15:47:16;9.87;;;3.20;;
14191;SDS011;7177;48.572;7.838;2023-07-09T15:49:45;9.07;;;2.80;;
14191;SDS011;7177;48.572;7.838;2023-07-09T15:52:11;6.63;;;2.80;;